.
WxDataArchive / Data Records for 2009-11-28
2009-11-27 November 2009 2009-11-29

Data Records for Saturday, 28 November 2009

Time	Temp	Chill	HIndex	Humid	Dewpt	 Wind 	HiWind	WindDir	Rain 	Barom 
-----	----	-----	------	-----	-----	------	------	-------	-----	----- 
00:00	27.0	27.0	27.0	88	23.9	0	0	---	0.00	30.039 
00:05	26.9	26.9	26.9	88	23.8	0	0	---	0.00	30.039 
00:10	26.9	26.9	26.9	88	23.8	0	0	---	0.00	30.039 
00:15	26.7	26.7	26.7	88	23.6	0	0	---	0.00	30.036 
00:20	26.6	26.6	26.6	88	23.5	0	0	---	0.00	30.036 
00:25	26.4	26.4	26.4	88	23.3	0	0	---	0.00	30.036 
00:30	26.4	26.4	26.4	88	23.3	0	0	---	0.00	30.029 
00:35	26.3	26.3	26.3	88	23.2	0	0	---	0.00	30.029 
00:40	26.1	26.1	26.1	88	23.0	0	0	---	0.00	30.029 
00:45	26.1	26.1	26.1	88	23.0	0	0	---	0.00	30.029 
00:50	26.0	26.0	26.0	89	23.2	0	0	---	0.00	30.029 
00:55	26.0	26.0	26.0	89	23.2	0	0	---	0.00	30.029 
01:00	25.8	25.8	25.8	89	23.0	0	0	---	0.00	30.035 
01:05	25.8	25.8	25.8	89	23.0	0	0	---	0.00	30.035 
01:10	25.7	25.7	25.7	89	22.9	0	0	---	0.00	30.035 
01:15	25.6	25.6	25.6	89	22.8	0	0	---	0.00	30.030 
01:20	25.4	25.4	25.4	89	22.6	0	0	---	0.00	30.030 
01:25	25.4	25.4	25.4	89	22.6	0	0	---	0.00	30.030 
01:30	25.4	25.4	25.4	89	22.6	0	0	---	0.00	30.030 
01:35	25.3	25.3	25.3	90	22.8	0	0	---	0.00	30.030 
01:40	25.3	25.3	25.3	90	22.8	0	0	---	0.00	30.030 
01:45	25.3	25.3	25.3	90	22.8	0	0	---	0.00	30.028 
01:50	25.1	25.1	25.1	90	22.6	0	0	---	0.00	30.028 
01:55	25.1	25.1	25.1	90	22.6	0	0	---	0.00	30.028 
02:00	25.1	25.1	25.1	90	22.6	0	0	---	0.00	30.025 
02:05	25.1	25.1	25.1	90	22.6	0	0	---	0.00	30.025 
02:10	25.3	25.3	25.3	91	23.0	0	0	---	0.00	30.025 
02:15	25.3	25.3	25.3	91	23.0	0	0	---	0.00	30.028 
02:20	25.4	25.4	25.4	91	23.1	0	0	---	0.00	30.028 
02:25	25.4	25.4	25.4	91	23.1	0	0	---	0.00	30.028 
02:30	25.7	25.7	25.7	92	23.7	0	0	---	0.00	30.023 
02:35	25.8	25.8	25.8	91	23.5	0	0	---	0.00	30.023 
02:40	25.8	25.8	25.8	91	23.5	0	0	---	0.00	30.023 
02:45	25.8	25.8	25.8	91	23.5	0	0	---	0.00	30.029 
02:50	25.7	25.7	25.7	91	23.4	0	0	---	0.00	30.029 
02:55	25.6	25.6	25.6	91	23.3	0	0	---	0.00	30.029 
03:00	25.4	25.4	25.4	91	23.1	0	0	---	0.00	30.028 
03:05	25.4	25.4	25.4	91	23.1	0	0	---	0.00	30.028 
03:10	25.3	25.3	25.3	92	23.3	0	0	---	0.00	30.028 
03:15	25.4	25.4	25.4	92	23.4	0	0	---	0.00	30.031 
03:20	25.3	25.3	25.3	92	23.3	0	0	---	0.00	30.031 
03:25	25.3	25.3	25.3	92	23.3	0	0	---	0.00	30.031 
03:30	25.3	25.3	25.3	92	23.3	0	0	---	0.00	30.026 
03:35	25.1	25.1	25.1	92	23.1	0	0	---	0.00	30.026 
03:40	25.1	25.1	25.1	92	23.1	0	0	---	0.00	30.026 
03:45	25.3	25.3	25.3	92	23.3	0	0	---	0.00	30.022 
03:50	25.3	25.3	25.3	92	23.3	0	0	---	0.00	30.022 
03:55	25.3	25.3	25.3	92	23.3	0	0	---	0.00	30.022 
04:00	25.3	25.3	25.3	92	23.3	0	0	---	0.00	30.016 
04:05	25.3	25.3	25.3	92	23.3	0	0	---	0.00	30.016 
04:10	25.3	25.3	25.3	92	23.3	0	0	---	0.00	30.016 
04:15	25.1	25.1	25.1	92	23.1	0	0	---	0.00	30.019 
04:20	25.1	25.1	25.1	92	23.1	0	0	---	0.00	30.019 
04:25	25.0	25.0	25.0	92	23.0	0	0	---	0.00	30.019 
04:30	24.8	24.8	24.8	92	22.8	0	0	---	0.00	30.016 
04:35	24.7	24.7	24.7	92	22.7	0	0	---	0.00	30.016 
04:40	24.7	24.7	24.7	92	22.7	0	0	---	0.00	30.016 
04:45	24.5	24.5	24.5	92	22.5	0	0	---	0.00	30.010 
04:50	24.4	24.4	24.4	92	22.4	0	0	---	0.00	30.010 
04:55	24.4	24.4	24.4	92	22.4	0	0	---	0.00	30.010 
05:00	24.4	24.4	24.4	92	22.4	0	0	---	0.00	30.009 
05:05	24.2	24.2	24.2	92	22.2	0	0	---	0.00	30.009 
05:10	24.2	24.2	24.2	92	22.2	0	0	---	0.00	30.009 
05:15	24.2	24.2	24.2	92	22.2	0	0	---	0.00	30.011 
05:20	24.2	24.2	24.2	92	22.2	0	0	---	0.00	30.011 
05:25	24.2	24.2	24.2	92	22.2	0	0	---	0.00	30.011 
05:30	24.2	24.2	24.2	92	22.2	0	0	---	0.00	30.006 
05:35	24.4	24.4	24.4	92	22.4	0	0	---	0.00	30.006 
05:40	24.4	24.4	24.4	92	22.4	0	0	---	0.00	30.006 
05:45	24.2	24.2	24.2	92	22.2	0	0	---	0.00	29.998 
05:50	24.2	24.2	24.2	92	22.2	0	0	---	0.00	29.998 
05:55	24.2	24.2	24.2	92	22.2	0	0	---	0.00	29.998 
06:00	24.1	24.1	24.1	92	22.1	0	0	---	0.00	29.996 
06:05	24.1	24.1	24.1	92	22.1	0	0	---	0.00	29.996 
06:10	24.2	24.2	24.2	92	22.2	0	0	---	0.00	29.996 
06:15	24.2	24.2	24.2	92	22.2	0	0	---	0.00	29.994 
06:20	24.2	24.2	24.2	92	22.2	0	0	---	0.00	29.994 
06:25	24.4	24.4	24.4	92	22.4	0	0	---	0.00	29.994 
06:30	24.4	24.4	24.4	92	22.4	0	0	---	0.00	29.997 
06:35	24.4	24.4	24.4	92	22.4	0	0	---	0.00	29.997 
06:40	24.4	24.4	24.4	92	22.4	0	0	---	0.00	29.997 
06:45	24.4	24.4	24.4	92	22.4	0	0	---	0.00	29.996 
06:50	24.4	24.4	24.4	92	22.4	0	0	---	0.00	29.996 
06:55	24.4	24.4	24.4	92	22.4	0	0	---	0.00	29.996 
07:00	24.2	24.2	24.2	92	22.2	0	0	---	0.00	29.987 
07:05	24.2	24.2	24.2	92	22.2	0	0	---	0.00	29.987 
07:10	24.2	24.2	24.2	92	22.2	0	0	---	0.00	29.987 
07:15	24.4	24.4	24.4	92	22.4	0	0	---	0.00	29.984 
07:20	24.4	24.4	24.4	92	22.4	0	0	---	0.00	29.984 
07:25	24.4	24.4	24.4	92	22.4	0	0	---	0.00	29.984 
07:30	24.4	24.4	24.4	92	22.4	0	0	---	0.00	29.981 
07:35	24.4	24.4	24.4	92	22.4	0	0	---	0.00	29.981 
07:40	24.5	24.5	24.5	93	22.8	0	0	---	0.00	29.981 
07:45	24.7	24.7	24.7	93	23.0	0	0	---	0.00	29.976 
07:50	24.8	24.8	24.8	92	22.8	0	0	---	0.00	29.976 
07:55	25.0	25.0	25.0	92	23.0	0	0	---	0.00	29.976 
08:00	25.1	25.1	25.1	92	23.1	0	0	---	0.00	29.979 
08:05	25.1	25.1	25.1	92	23.1	0	0	---	0.00	29.979 
08:10	25.3	25.3	25.3	93	23.6	0	0	---	0.00	29.979 
08:15	25.7	25.7	25.7	93	24.0	0	1	248	0.00	29.969 
08:20	26.4	26.4	26.4	94	24.9	0	0	---	0.00	29.969 
08:25	26.9	26.9	26.9	93	25.2	0	1	248	0.00	29.969 
08:30	27.2	27.2	27.2	93	25.4	0	0	---	0.00	29.972 
08:35	27.5	27.5	27.5	93	25.7	0	1	248	0.00	29.972 
08:40	27.8	27.8	27.8	92	25.8	0	1	248	0.00	29.972 
08:45	28.1	28.1	28.1	92	26.1	0	1	22	0.00	29.972 
08:50	28.4	28.4	28.4	92	26.4	0	1	22	0.00	29.972 
08:55	28.7	28.7	28.7	92	26.7	0	2	22	0.00	29.972 
09:00	29.1	29.1	29.1	92	27.1	0	3	112	0.00	29.974 
09:05	29.4	29.4	29.4	91	27.1	0	3	112	0.00	29.974 
09:10	29.8	29.8	29.8	91	27.5	0	1	112	0.00	29.974 
09:15	30.1	30.1	30.1	90	27.5	0	1	112	0.00	29.974 
09:20	30.7	30.7	30.7	90	28.1	0	2	112	0.00	29.974 
09:25	31.5	31.5	31.5	89	28.6	0	1	112	0.00	29.974 
09:30	32.1	32.1	32.1	88	29.0	0	1	112	0.00	29.975 
09:35	32.5	32.5	32.5	86	28.8	0	1	112	0.00	29.975 
09:40	32.8	32.8	32.8	85	28.8	0	2	112	0.00	29.975 
09:45	33.1	33.1	33.1	84	28.8	1	3	112	0.00	29.967 
09:50	33.5	33.5	33.5	83	28.9	1	3	112	0.00	29.967 
09:55	34.0	34.0	34.0	82	29.1	0	2	270	0.00	29.967 
10:00	34.6	34.6	34.6	82	29.7	0	2	90	0.00	29.962 
10:05	35.2	35.2	35.2	81	30.0	1	3	112	0.00	29.962 
10:10	35.9	35.9	35.9	79	30.0	1	4	112	0.00	29.962 
10:15	36.5	36.5	36.5	78	30.3	0	2	112	0.00	29.959 
10:20	37.0	37.0	37.0	77	30.5	0	2	112	0.00	29.959 
10:25	37.5	37.5	37.5	74	30.0	1	4	112	0.00	29.959 
10:30	38.0	38.0	38.0	75	30.8	0	2	112	0.00	29.958 
10:35	38.3	38.3	38.3	74	30.8	0	3	270	0.00	29.958 
10:40	38.8	38.8	38.8	73	30.9	1	4	112	0.00	29.958 
10:45	39.2	39.2	39.2	72	30.9	1	4	135	0.00	29.958 
10:50	39.6	39.6	39.6	71	31.0	1	4	90	0.00	29.958 
10:55	40.1	40.1	40.1	71	31.5	1	4	90	0.00	29.958 
11:00	40.2	40.2	40.2	70	31.2	1	4	90	0.00	29.958 
11:05	40.5	40.5	40.5	69	31.1	1	3	248	0.00	29.958 
11:10	40.8	40.8	40.8	70	31.8	0	3	90	0.00	29.958 
11:15	41.1	41.1	41.1	69	31.7	0	3	90	0.00	29.950 
11:20	41.3	41.3	41.3	70	32.3	1	4	90	0.00	29.950 
11:25	41.8	41.8	41.8	68	32.0	2	5	90	0.00	29.950 
11:30	42.2	42.2	42.2	68	32.4	1	4	90	0.00	29.942 
11:35	42.3	42.3	42.3	67	32.1	1	5	68	0.00	29.942 
11:40	42.5	42.5	42.5	66	32.0	1	4	248	0.00	29.942 
11:45	42.8	42.8	42.8	68	33.0	1	3	90	0.00	29.933 
11:50	43.2	43.2	43.2	66	32.6	1	6	292	0.00	29.933 
11:55	43.5	43.5	43.5	67	33.3	1	3	0	0.00	29.933 
12:00	43.8	43.8	43.8	67	33.6	1	3	158	0.00	29.923 
12:05	44.2	44.2	44.2	67	33.9	1	3	248	0.00	29.923 
12:10	44.6	44.6	44.6	66	34.0	1	3	68	0.00	29.923 
12:15	44.6	44.6	44.6	64	33.2	1	4	248	0.00	29.917 
12:20	44.9	44.9	44.9	65	33.9	1	3	248	0.00	29.917 
12:25	45.2	45.2	45.2	65	34.1	0	3	248	0.00	29.917 
12:30	45.4	45.4	45.4	64	33.9	1	4	248	0.00	29.908 
12:35	45.5	45.5	45.5	64	34.0	1	3	338	0.00	29.908 
12:40	45.8	45.8	45.8	64	34.3	1	4	135	0.00	29.908 
12:45	46.2	46.2	46.2	65	35.1	1	4	315	0.00	29.904 
12:50	46.5	46.5	46.5	62	34.2	1	4	90	0.00	29.904 
12:55	46.8	46.8	46.8	62	34.5	2	6	90	0.00	29.904 
13:00	47.1	47.1	47.1	62	34.8	2	7	90	0.00	29.897 
13:05	47.3	47.3	47.3	62	34.9	1	4	248	0.00	29.897 
13:10	47.7	47.7	47.7	63	35.7	0	3	112	0.00	29.897 
13:15	48.0	48.0	48.0	62	35.6	1	4	248	0.00	29.888 
13:20	48.3	48.3	48.3	62	35.9	1	4	248	0.00	29.888 
13:25	48.6	48.6	48.6	62	36.2	1	3	248	0.00	29.888 
13:30	48.8	48.8	48.8	61	36.0	1	4	225	0.00	29.876 
13:35	48.9	48.9	48.9	61	36.0	1	4	112	0.00	29.876 
13:40	48.9	48.9	48.9	61	36.0	1	3	45	0.00	29.876 
13:45	49.1	49.1	49.1	62	36.6	1	5	270	0.00	29.870 
13:50	49.2	49.2	49.2	60	35.9	1	4	248	0.00	29.870 
13:55	49.5	49.5	49.5	61	36.6	1	3	68	0.00	29.870 
14:00	49.6	49.6	49.6	61	36.7	1	4	315	0.00	29.861 
14:05	49.9	49.9	49.9	61	37.0	1	3	315	0.00	29.861 
14:10	50.1	50.1	50.1	59	36.3	1	5	90	0.00	29.861 
14:15	50.2	50.2	50.2	60	36.9	1	5	90	0.00	29.857 
14:20	50.5	50.5	50.5	61	37.6	1	3	248	0.00	29.857 
14:25	50.7	50.7	50.7	60	37.3	1	3	90	0.00	29.857 
14:30	50.8	50.8	50.8	60	37.4	1	3	90	0.00	29.854 
14:35	51.0	51.0	51.0	59	37.2	1	5	248	0.00	29.854 
14:40	51.1	51.1	51.1	60	37.7	1	4	248	0.00	29.854 
14:45	51.3	51.3	51.3	59	37.5	1	4	112	0.00	29.852 
14:50	51.3	51.3	51.3	58	37.0	1	3	90	0.00	29.852 
14:55	51.4	51.4	51.4	59	37.6	1	5	270	0.00	29.852 
15:00	51.6	51.6	51.6	59	37.7	1	5	90	0.00	29.848 
15:05	51.7	51.7	51.7	59	37.8	1	4	248	0.00	29.848 
15:10	51.9	51.9	51.9	59	38.0	1	2	248	0.00	29.848 
15:15	52.0	52.0	52.0	59	38.1	1	3	112	0.00	29.844 
15:20	52.2	52.2	52.2	59	38.3	1	3	68	0.00	29.844 
15:25	52.5	52.5	52.5	59	38.6	1	2	270	0.00	29.844 
15:30	52.8	52.8	52.8	58	38.4	1	4	45	0.00	29.843 
15:35	52.8	52.8	52.8	58	38.4	0	3	158	0.00	29.843 
15:40	52.9	52.9	52.9	58	38.5	1	3	292	0.00	29.843 
15:45	52.9	52.9	52.9	59	39.0	0	2	0	0.00	29.846 
15:50	52.8	52.8	52.8	58	38.4	1	3	112	0.00	29.846 
15:55	52.6	52.6	52.6	59	38.7	0	2	45	0.00	29.846 
16:00	52.6	52.6	52.6	59	38.7	1	3	270	0.00	29.845 
16:05	52.6	52.6	52.6	59	38.7	0	2	270	0.00	29.845 
16:10	52.6	52.6	52.6	59	38.7	1	3	270	0.00	29.845 
16:15	52.6	52.6	52.6	59	38.7	0	2	270	0.00	29.842 
16:20	52.6	52.6	52.6	60	39.1	0	3	270	0.00	29.842 
16:25	52.5	52.5	52.5	60	39.0	0	3	270	0.00	29.842 
16:30	52.5	52.5	52.5	60	39.0	0	4	270	0.00	29.840 
16:35	52.3	52.3	52.3	60	38.8	0	4	270	0.00	29.840 
16:40	52.2	52.2	52.2	60	38.7	0	4	248	0.00	29.840 
16:45	51.9	51.9	51.9	61	38.9	0	1	248	0.00	29.838 
16:50	51.4	51.4	51.4	61	38.4	0	1	248	0.00	29.838 
16:55	51.1	51.1	51.1	62	38.5	0	1	248	0.00	29.838 
17:00	50.8	50.8	50.8	62	38.3	0	0	---	0.00	29.840 
17:05	50.4	50.4	50.4	62	37.9	0	1	248	0.00	29.840 
17:10	50.1	50.1	50.1	63	38.0	0	0	---	0.00	29.840 
17:15	49.6	49.6	49.6	64	37.9	0	0	---	0.00	29.840 
17:20	49.2	49.2	49.2	65	37.9	0	2	248	0.00	29.840 
17:25	48.8	48.8	48.8	65	37.6	0	2	248	0.00	29.840 
17:30	48.5	48.5	48.5	66	37.7	0	2	248	0.00	29.842 
17:35	48.2	48.2	48.2	67	37.8	0	1	248	0.00	29.842 
17:40	48.0	48.0	48.0	67	37.6	0	2	248	0.00	29.842 
17:45	48.0	48.0	48.0	68	37.9	0	2	248	0.00	29.843 
17:50	48.0	48.0	48.0	68	37.9	0	2	248	0.00	29.843 
17:55	48.0	48.0	48.0	67	37.6	0	2	248	0.00	29.843 
18:00	48.2	48.2	48.2	67	37.8	0	2	248	0.00	29.854 
18:05	48.3	48.3	48.3	67	37.9	1	3	248	0.00	29.854 
18:10	48.3	48.3	48.3	67	37.9	1	2	248	0.00	29.854 
18:15	48.3	48.3	48.3	67	37.9	1	2	248	0.00	29.858 
18:20	48.2	48.2	48.2	67	37.8	0	2	248	0.00	29.858 
18:25	48.0	48.0	48.0	67	37.6	1	2	248	0.00	29.858 
18:30	47.9	47.9	47.9	68	37.9	0	2	248	0.00	29.858 
18:35	47.6	47.6	47.6	68	37.6	0	2	248	0.00	29.858 
18:40	47.3	47.3	47.3	69	37.7	0	2	248	0.00	29.858 
18:45	46.8	46.8	46.8	69	37.2	0	1	248	0.00	29.866 
18:50	46.4	46.4	46.4	69	36.8	0	0	---	0.00	29.866 
18:55	46.0	46.0	46.0	70	36.8	0	0	---	0.00	29.866 
19:00	45.4	45.4	45.4	71	36.6	0	0	---	0.00	29.866 
19:05	44.9	44.9	44.9	72	36.4	0	0	---	0.00	29.866 
19:10	44.3	44.3	44.3	73	36.2	0	0	---	0.00	29.866 
19:15	43.8	43.8	43.8	73	35.7	0	0	---	0.00	29.870 
19:20	43.3	43.3	43.3	76	36.3	0	1	248	0.00	29.870 
19:25	43.2	43.2	43.2	77	36.5	0	0	---	0.00	29.870 
19:30	43.1	43.1	43.1	78	36.7	0	1	248	0.00	29.871 
19:35	42.9	42.9	42.9	79	36.8	0	1	248	0.00	29.871 
19:40	42.6	42.6	42.6	79	36.6	0	0	---	0.00	29.871 
19:45	42.5	42.5	42.5	79	36.5	0	0	---	0.00	29.871 
19:50	42.1	42.1	42.1	79	36.1	0	0	---	0.00	29.871 
19:55	41.8	41.8	41.8	80	36.1	0	1	248	0.00	29.871 
20:00	41.6	41.6	41.6	80	35.9	0	0	---	0.00	29.874 
20:05	41.3	41.3	41.3	81	35.9	0	0	---	0.00	29.874 
20:10	41.1	41.1	41.1	81	35.7	0	0	---	0.00	29.874 
20:15	41.1	41.1	41.1	82	36.0	0	0	---	0.00	29.867 
20:20	40.9	40.9	40.9	82	35.8	0	0	---	0.00	29.867 
20:25	40.9	40.9	40.9	83	36.1	0	0	---	0.00	29.867 
20:30	40.8	40.8	40.8	83	36.0	0	0	---	0.00	29.861 
20:35	40.6	40.6	40.6	83	35.8	0	0	---	0.00	29.861 
20:40	40.5	40.5	40.5	83	35.8	0	0	---	0.00	29.861 
20:45	40.2	40.2	40.2	83	35.5	0	0	---	0.00	29.863 
20:50	39.9	39.9	39.9	84	35.5	0	0	---	0.00	29.863 
20:55	39.6	39.6	39.6	84	35.2	0	0	---	0.00	29.863 
21:00	39.5	39.5	39.5	84	35.1	0	0	---	0.00	29.863 
21:05	39.3	39.3	39.3	85	35.2	0	0	---	0.00	29.863 
21:10	39.3	39.3	39.3	86	35.5	0	1	248	0.00	29.863 
21:15	39.5	39.5	39.5	86	35.7	0	1	248	0.00	29.856 
21:20	39.8	39.8	39.8	87	36.3	0	1	248	0.00	29.856 
21:25	40.1	40.1	40.1	87	36.5	0	1	248	0.00	29.856 
21:30	40.3	40.3	40.3	86	36.5	0	1	248	0.00	29.854 
21:35	40.5	40.5	40.5	86	36.6	0	1	248	0.00	29.854 
21:40	40.6	40.6	40.6	85	36.4	0	1	248	0.00	29.854 
21:45	40.9	40.9	40.9	85	36.7	0	1	248	0.00	29.848 
21:50	41.2	41.2	41.2	84	36.7	0	2	248	0.00	29.848 
21:55	41.3	41.3	41.3	84	36.8	0	1	248	0.00	29.848 
22:00	41.5	41.5	41.5	83	36.7	0	0	---	0.00	29.852 
22:05	41.5	41.5	41.5	83	36.7	0	1	248	0.00	29.852 
22:10	41.3	41.3	41.3	82	36.2	0	0	---	0.00	29.852 
22:15	41.2	41.2	41.2	82	36.1	0	1	248	0.00	29.848 
22:20	41.1	41.1	41.1	83	36.3	0	1	248	0.00	29.848 
22:25	40.9	40.9	40.9	83	36.1	0	0	---	0.00	29.848 
22:30	40.6	40.6	40.6	83	35.8	0	0	---	0.00	29.848 
22:35	40.3	40.3	40.3	83	35.6	0	0	---	0.00	29.848 
22:40	40.1	40.1	40.1	84	35.7	0	0	---	0.00	29.848 
22:45	40.1	40.1	40.1	84	35.7	0	1	248	0.00	29.848 
22:50	39.9	39.9	39.9	84	35.5	0	1	248	0.00	29.848 
22:55	39.8	39.8	39.8	85	35.7	0	1	248	0.00	29.848 
23:00	39.8	39.8	39.8	85	35.7	0	0	---	0.00	29.849 
23:05	39.8	39.8	39.8	85	35.7	0	1	248	0.00	29.849 
23:10	39.6	39.6	39.6	85	35.5	0	0	---	0.00	29.849 
23:15	39.6	39.6	39.6	85	35.5	0	0	---	0.00	29.846 
23:20	39.6	39.6	39.6	85	35.5	0	0	---	0.00	29.846 
23:25	39.6	39.6	39.6	86	35.8	0	0	---	0.00	29.846 
23:30	39.6	39.6	39.6	86	35.8	0	1	248	0.00	29.846 
23:35	39.6	39.6	39.6	86	35.8	0	1	248	0.00	29.846 
23:40	39.8	39.8	39.8	86	36.0	0	0	---	0.00	29.846 
23:45	39.8	39.8	39.8	86	36.0	0	0	---	0.00	29.842 
23:50	39.6	39.6	39.6	85	35.5	0	0	---	0.00	29.842 
23:55	39.5	39.5	39.5	85	35.4	0	0	---	0.00	29.842 

CoCoRaHS
IN-AL-39
A2 Web Hosting
Creative Commons License
GoDaddy
search engine by freefind advanced

loaded 2018-11-16 00:03:24 • last modified 2010-11-18 10:43:29
Privacy PolicyDisclaimer
• wx.awcolley.com is powered by PmWiki v.2002016 •
• all content (unless otherwise noted) © 2018 A W Colley